Metropolis, IL

3:59 AM CDT on September 20, 2014 (GMT -0500)
Metropolis | Change Station
CLOSE
Current Station
Airport
Location: Metropolis,
Elevation: 384 ft
Nearby Weather Stations
Active Advisory: Special Statement

Elev 384 ft 37.18 °N, 88.75 °W | Updated 24 minutes ago

Clear
Clear
57 °F
Feels Like 57 °F
N
0
Wind Variable Wind from North

Today
High -- | Low -- °F
--% Chance of Precip.
Yesterday
High -- | Low -- °F
Precip. -- in
6:41 AM 6:54 PM
Waning Crescent, 13% visible
Pressure 30.01 in
Visibility 5.0 miles
Clouds Clear
Dew Point 57 °F
Humidity 100%
Rainfall 0.00 in
Snow Depth Not available.
UV 0 out of 12
Pollen 7.40 out of 12
Air Quality Not available.
Flu Activity Not available.
METAR KM30 200835Z AUTO 00000KT 5SM BR CLR 14/14 A3001 RMK AO2 T01410141

More Conditions Fewer Conditions

Pressure 30.01 in
Visibility 5.0 miles
Clouds Clear
Dew Point 57 °F
Humidity 100%
Rainfall 0.00 in
Snow Depth Not available.
UV 0 out of 12
Pollen 7.40 out of 12
Air Quality Not available.
Flu Activity Not available.
METAR KM30 200835Z AUTO 00000KT 5SM BR CLR 14/14 A3001 RMK AO2 T01410141

More Conditions Fewer Conditions

10-Day Weather Forecast

Almanac

Astronomy

Sep. 20, 2014 Rise Set
Actual Time 6:41 AM CDT 6:54 PM CDT
Civil Twilight 6:15 AM CDT 7:20 PM CDT
Nautical Twilight 5:44 AM CDT 7:51 PM CDT
Astronomical Twilight 5:13 AM CDT 8:22 PM CDT
Moon 3:23 AM CDT 4:55 PM CDT
Length of Visible Light 13h 05m
Length of Day
12h 13m
Tomorrow will be 2m 22s shorter.
Waning Crescent, 13% of the Moon is Illuminated
Today
Waning Crescent
Sep 24
New
Oct 1
First Quarter
Oct 8
Full
Oct 15
Last Quarter

Today's Extremes

State Highs State Lows

Community

WunderPhotos

Upload Photos

1,754,793 photos uploaded!

WunderBlogs® & News

Nearby

Snow Depth

Station Depth Elevation
No new snow has been reported.

Earthquake Activity

City Distance Mag. Time & Date
No recent earthquake activity has been reported nearby.
Minimum magnitude displayed is 2.5.

Coastal Water Temperatures

Place Temperature
No Stations Reporting

Nearby Weather Stations